sensor_id;sensor_type;location;lat;lon;timestamp;P1;durP1;ratioP1;P2;durP2;ratioP2
72850;SDS011;61171;43.848;10.510;2022-08-21T11:01:17;7.25;;;4.20;;
72850;SDS011;61171;43.848;10.510;2022-08-21T11:03:22;7.83;;;4.30;;
72850;SDS011;61171;43.848;10.510;2022-08-21T11:05:33;8.38;;;4.35;;
72850;SDS011;61171;43.848;10.510;2022-08-21T11:09:40;6.88;;;3.97;;
72850;SDS011;61171;43.848;10.510;2022-08-21T11:11:50;6.57;;;3.55;;
72850;SDS011;61171;43.848;10.510;2022-08-21T11:14:00;8.43;;;4.30;;
72850;SDS011;61171;43.848;10.510;2022-08-21T11:18:31;5.93;;;3.50;;
72850;SDS011;61171;43.848;10.510;2022-08-21T11:20:40;8.52;;;3.80;;
72850;SDS011;61171;43.848;10.510;2022-08-21T11:25:13;9.50;;;3.53;;
72850;SDS011;61171;43.848;10.510;2022-08-21T11:27:20;7.70;;;3.58;;
72850;SDS011;61171;43.848;10.510;2022-08-21T11:29:25;6.97;;;3.47;;
72850;SDS011;61171;43.848;10.510;2022-08-21T11:31:32;7.68;;;3.20;;
72850;SDS011;61171;43.848;10.510;2022-08-21T11:35:42;7.17;;;3.20;;
72850;SDS011;61171;43.848;10.510;2022-08-21T11:42:04;6.38;;;3.28;;
72850;SDS011;61171;43.848;10.510;2022-08-21T11:50:45;6.25;;;3.35;;
72850;SDS011;61171;43.848;10.510;2022-08-21T11:52:51;6.00;;;3.00;;
72850;SDS011;61171;43.848;10.510;2022-08-21T11:57:14;9.60;;;3.53;;
72850;SDS011;61171;43.848;10.510;2022-08-21T11:59:19;7.07;;;3.17;;
72850;SDS011;61171;43.848;10.510;2022-08-21T12:01:42;7.77;;;3.23;;
72850;SDS011;61171;43.848;10.510;2022-08-21T12:03:42;7.75;;;3.03;;
72850;SDS011;61171;43.848;10.510;2022-08-21T12:05:54;8.00;;;3.63;;
72850;SDS011;61171;43.848;10.510;2022-08-21T12:08:04;7.00;;;3.17;;
72850;SDS011;61171;43.848;10.510;2022-08-21T12:10:11;8.90;;;3.17;;
72850;SDS011;61171;43.848;10.510;2022-08-21T12:12:13;9.93;;;3.40;;
72850;SDS011;61171;43.848;10.510;2022-08-21T12:14:22;8.70;;;3.60;;
72850;SDS011;61171;43.848;10.510;2022-08-21T12:18:29;10.48;;;3.40;;
72850;SDS011;61171;43.848;10.510;2022-08-21T12:22:40;6.60;;;3.17;;
72850;SDS011;61171;43.848;10.510;2022-08-21T12:24:42;8.95;;;3.58;;
72850;SDS011;61171;43.848;10.510;2022-08-21T12:28:49;10.05;;;3.75;;
72850;SDS011;61171;43.848;10.510;2022-08-21T12:30:49;7.87;;;3.27;;
72850;SDS011;61171;43.848;10.510;2022-08-21T12:32:55;9.20;;;3.40;;
72850;SDS011;61171;43.848;10.510;2022-08-21T12:35:07;9.57;;;3.40;;
72850;SDS011;61171;43.848;10.510;2022-08-21T12:37:20;7.50;;;3.30;;
72850;SDS011;61171;43.848;10.510;2022-08-21T12:39:23;7.60;;;3.20;;
72850;SDS011;61171;43.848;10.510;2022-08-21T12:43:35;10.57;;;3.42;;
72850;SDS011;61171;43.848;10.510;2022-08-21T12:45:40;7.80;;;3.20;;
72850;SDS011;61171;43.848;10.510;2022-08-21T12:47:54;8.82;;;3.45;;
72850;SDS011;61171;43.848;10.510;2022-08-21T12:52:57;8.27;;;3.00;;
72850;SDS011;61171;43.848;10.510;2022-08-21T12:54:27;7.55;;;2.50;;
72850;SDS011;61171;43.848;10.510;2022-08-21T12:56:31;9.25;;;2.80;;
72850;SDS011;61171;43.848;10.510;2022-08-21T12:58:31;8.13;;;2.83;;
72850;SDS011;61171;43.848;10.510;2022-08-21T13:00:31;6.88;;;2.83;;
72850;SDS011;61171;43.848;10.510;2022-08-21T13:02:33;6.67;;;3.00;;
72850;SDS011;61171;43.848;10.510;2022-08-21T13:04:35;8.70;;;2.83;;
72850;SDS011;61171;43.848;10.510;2022-08-21T13:06:38;9.02;;;3.20;;
72850;SDS011;61171;43.848;10.510;2022-08-21T13:08:39;9.40;;;3.13;;
72850;SDS011;61171;43.848;10.510;2022-08-21T13:10:47;8.80;;;2.90;;
72850;SDS011;61171;43.848;10.510;2022-08-21T13:12:48;12.30;;;3.17;;
72850;SDS011;61171;43.848;10.510;2022-08-21T13:14:49;6.55;;;3.03;;
72850;SDS011;61171;43.848;10.510;2022-08-21T13:16:55;8.50;;;3.22;;
72850;SDS011;61171;43.848;10.510;2022-08-21T13:19:05;7.60;;;2.73;;
72850;SDS011;61171;43.848;10.510;2022-08-21T13:21:11;7.07;;;2.92;;
72850;SDS011;61171;43.848;10.510;2022-08-21T13:23:24;7.68;;;2.90;;
72850;SDS011;61171;43.848;10.510;2022-08-21T13:25:26;9.25;;;3.25;;
72850;SDS011;61171;43.848;10.510;2022-08-21T13:27:28;9.20;;;2.92;;
72850;SDS011;61171;43.848;10.510;2022-08-21T13:29:31;6.90;;;2.90;;
72850;SDS011;61171;43.848;10.510;2022-08-21T13:31:31;8.13;;;3.08;;
72850;SDS011;61171;43.848;10.510;2022-08-21T13:33:32;6.57;;;2.70;;
72850;SDS011;61171;43.848;10.510;2022-08-21T13:38:05;9.07;;;2.90;;
72850;SDS011;61171;43.848;10.510;2022-08-21T13:40:06;6.95;;;2.55;;
72850;SDS011;61171;43.848;10.510;2022-08-21T13:42:09;7.95;;;2.70;;
72850;SDS011;61171;43.848;10.510;2022-08-21T13:44:18;7.50;;;2.80;;
72850;SDS011;61171;43.848;10.510;2022-08-21T13:46:18;8.93;;;2.80;;
72850;SDS011;61171;43.848;10.510;2022-08-21T13:48:22;8.95;;;2.78;;
72850;SDS011;61171;43.848;10.510;2022-08-21T13:50:24;7.32;;;2.78;;
72850;SDS011;61171;43.848;10.510;2022-08-21T13:52:26;8.05;;;2.55;;
72850;SDS011;61171;43.848;10.510;2022-08-21T13:54:33;7.17;;;2.70;;
72850;SDS011;61171;43.848;10.510;2022-08-21T13:56:44;8.25;;;2.95;;
72850;SDS011;61171;43.848;10.510;2022-08-21T13:58:46;8.07;;;2.70;;
72850;SDS011;61171;43.848;10.510;2022-08-21T14:00:47;8.50;;;3.00;;
72850;SDS011;61171;43.848;10.510;2022-08-21T14:02:49;7.17;;;2.90;;
72850;SDS011;61171;43.848;10.510;2022-08-21T14:04:55;8.80;;;3.10;;
72850;SDS011;61171;43.848;10.510;2022-08-21T14:06:56;8.85;;;2.97;;
72850;SDS011;61171;43.848;10.510;2022-08-21T14:09:03;8.60;;;3.27;;
72850;SDS011;61171;43.848;10.510;2022-08-21T14:11:09;9.95;;;3.58;;
72850;SDS011;61171;43.848;10.510;2022-08-21T14:13:26;11.48;;;3.55;;
72850;SDS011;61171;43.848;10.510;2022-08-21T14:15:29;9.57;;;3.13;;
72850;SDS011;61171;43.848;10.510;2022-08-21T14:17:34;7.50;;;3.00;;
72850;SDS011;61171;43.848;10.510;2022-08-21T14:19:36;8.55;;;3.40;;
72850;SDS011;61171;43.848;10.510;2022-08-21T14:21:38;9.30;;;3.35;;
72850;SDS011;61171;43.848;10.510;2022-08-21T14:23:40;12.23;;;3.25;;
72850;SDS011;61171;43.848;10.510;2022-08-21T14:25:42;7.90;;;2.90;;
72850;SDS011;61171;43.848;10.510;2022-08-21T14:27:44;8.80;;;2.63;;
72850;SDS011;61171;43.848;10.510;2022-08-21T14:29:44;10.45;;;3.38;;
72850;SDS011;61171;43.848;10.510;2022-08-21T14:31:49;7.47;;;2.88;;
72850;SDS011;61171;43.848;10.510;2022-08-21T14:33:49;8.93;;;3.17;;
72850;SDS011;61171;43.848;10.510;2022-08-21T14:35:50;9.35;;;3.88;;
72850;SDS011;61171;43.848;10.510;2022-08-21T14:37:50;9.70;;;3.50;;
72850;SDS011;61171;43.848;10.510;2022-08-21T14:39:51;7.73;;;3.20;;
72850;SDS011;61171;43.848;10.510;2022-08-21T14:41:51;10.40;;;3.27;;
72850;SDS011;61171;43.848;10.510;2022-08-21T14:43:52;6.87;;;2.90;;
72850;SDS011;61171;43.848;10.510;2022-08-21T14:45:53;8.50;;;3.07;;
72850;SDS011;61171;43.848;10.510;2022-08-21T14:47:54;6.30;;;2.75;;
72850;SDS011;61171;43.848;10.510;2022-08-21T14:49:54;10.10;;;3.78;;
72850;SDS011;61171;43.848;10.510;2022-08-21T14:51:57;9.87;;;3.67;;
72850;SDS011;61171;43.848;10.510;2022-08-21T14:53:58;7.23;;;3.23;;
72850;SDS011;61171;43.848;10.510;2022-08-21T14:55:58;12.05;;;6.45;;
72850;SDS011;61171;43.848;10.510;2022-08-21T14:58:04;7.30;;;3.23;;
72850;SDS011;61171;43.848;10.510;2022-08-21T15:00:05;10.53;;;2.97;;
72850;SDS011;61171;43.848;10.510;2022-08-21T15:02:05;9.03;;;3.37;;
72850;SDS011;61171;43.848;10.510;2022-08-21T15:04:06;7.07;;;2.80;;
72850;SDS011;61171;43.848;10.510;2022-08-21T15:06:07;9.50;;;2.97;;
72850;SDS011;61171;43.848;10.510;2022-08-21T15:08:08;10.02;;;4.05;;
72850;SDS011;61171;43.848;10.510;2022-08-21T15:10:08;9.00;;;3.60;;
72850;SDS011;61171;43.848;10.510;2022-08-21T15:12:08;7.77;;;2.83;;
72850;SDS011;61171;43.848;10.510;2022-08-21T15:14:11;10.13;;;3.50;;
72850;SDS011;61171;43.848;10.510;2022-08-21T15:16:12;10.48;;;5.80;;
72850;SDS011;61171;43.848;10.510;2022-08-21T15:18:13;9.97;;;5.97;;
72850;SDS011;61171;43.848;10.510;2022-08-21T15:20:13;11.90;;;4.03;;
72850;SDS011;61171;43.848;10.510;2022-08-21T15:22:14;8.53;;;3.00;;
72850;SDS011;61171;43.848;10.510;2022-08-21T15:24:14;8.33;;;4.20;;
72850;SDS011;61171;43.848;10.510;2022-08-21T15:26:14;6.93;;;2.77;;
72850;SDS011;61171;43.848;10.510;2022-08-21T15:28:15;6.90;;;3.47;;
72850;SDS011;61171;43.848;10.510;2022-08-21T15:30:16;11.15;;;6.15;;
72850;SDS011;61171;43.848;10.510;2022-08-21T15:32:19;9.20;;;3.77;;
72850;SDS011;61171;43.848;10.510;2022-08-21T15:34:19;7.97;;;3.10;;
72850;SDS011;61171;43.848;10.510;2022-08-21T15:36:20;10.02;;;3.70;;
72850;SDS011;61171;43.848;10.510;2022-08-21T15:38:20;8.93;;;2.93;;
72850;SDS011;61171;43.848;10.510;2022-08-21T15:40:20;7.97;;;3.60;;
72850;SDS011;61171;43.848;10.510;2022-08-21T15:42:21;9.10;;;3.93;;
72850;SDS011;61171;43.848;10.510;2022-08-21T15:44:21;9.77;;;3.70;;
72850;SDS011;61171;43.848;10.510;2022-08-21T15:46:22;9.57;;;4.38;;
72850;SDS011;61171;43.848;10.510;2022-08-21T15:48:22;8.93;;;3.20;;
72850;SDS011;61171;43.848;10.510;2022-08-21T15:50:23;8.00;;;3.33;;
72850;SDS011;61171;43.848;10.510;2022-08-21T15:52:23;8.48;;;2.90;;
72850;SDS011;61171;43.848;10.510;2022-08-21T15:54:24;11.97;;;3.97;;
72850;SDS011;61171;43.848;10.510;2022-08-21T15:56:25;11.40;;;3.30;;
72850;SDS011;61171;43.848;10.510;2022-08-21T15:58:26;9.77;;;3.40;;
72850;SDS011;61171;43.848;10.510;2022-08-21T16:00:27;10.17;;;4.17;;
72850;SDS011;61171;43.848;10.510;2022-08-21T16:02:29;10.77;;;3.33;;
72850;SDS011;61171;43.848;10.510;2022-08-21T16:04:30;11.57;;;5.70;;
72850;SDS011;61171;43.848;10.510;2022-08-21T16:06:30;8.07;;;3.83;;
72850;SDS011;61171;43.848;10.510;2022-08-21T16:08:30;9.57;;;3.47;;
72850;SDS011;61171;43.848;10.510;2022-08-21T16:10:31;7.80;;;3.10;;
72850;SDS011;61171;43.848;10.510;2022-08-21T16:12:32;9.37;;;3.40;;
72850;SDS011;61171;43.848;10.510;2022-08-21T16:14:33;9.68;;;4.50;;
72850;SDS011;61171;43.848;10.510;2022-08-21T16:16:36;10.30;;;3.70;;
72850;SDS011;61171;43.848;10.510;2022-08-21T16:18:36;12.37;;;3.60;;
72850;SDS011;61171;43.848;10.510;2022-08-21T16:20:36;13.93;;;3.80;;
72850;SDS011;61171;43.848;10.510;2022-08-21T16:22:37;11.93;;;3.13;;
72850;SDS011;61171;43.848;10.510;2022-08-21T16:24:37;10.93;;;3.57;;
72850;SDS011;61171;43.848;10.510;2022-08-21T16:26:37;9.83;;;3.70;;
72850;SDS011;61171;43.848;10.510;2022-08-21T16:28:38;10.83;;;4.03;;
72850;SDS011;61171;43.848;10.510;2022-08-21T16:30:40;12.35;;;4.32;;
72850;SDS011;61171;43.848;10.510;2022-08-21T16:32:41;10.23;;;3.75;;
72850;SDS011;61171;43.848;10.510;2022-08-21T16:34:44;12.43;;;3.77;;
72850;SDS011;61171;43.848;10.510;2022-08-21T16:36:45;10.33;;;3.37;;
72850;SDS011;61171;43.848;10.510;2022-08-21T16:38:45;14.07;;;4.03;;
72850;SDS011;61171;43.848;10.510;2022-08-21T16:40:47;13.13;;;3.40;;
72850;SDS011;61171;43.848;10.510;2022-08-21T16:42:47;9.80;;;3.60;;
72850;SDS011;61171;43.848;10.510;2022-08-21T16:44:48;13.55;;;4.22;;
72850;SDS011;61171;43.848;10.510;2022-08-21T16:46:48;14.23;;;4.00;;
72850;SDS011;61171;43.848;10.510;2022-08-21T16:48:49;9.33;;;3.57;;
72850;SDS011;61171;43.848;10.510;2022-08-21T16:50:50;10.87;;;3.73;;
72850;SDS011;61171;43.848;10.510;2022-08-21T16:52:52;11.43;;;3.67;;
72850;SDS011;61171;43.848;10.510;2022-08-21T16:54:53;12.77;;;3.58;;
72850;SDS011;61171;43.848;10.510;2022-08-21T16:56:53;14.13;;;4.30;;
72850;SDS011;61171;43.848;10.510;2022-08-21T16:58:54;13.10;;;4.18;;
72850;SDS011;61171;43.848;10.510;2022-08-21T17:00:55;13.13;;;4.07;;
72850;SDS011;61171;43.848;10.510;2022-08-21T17:02:56;10.80;;;4.10;;
72850;SDS011;61171;43.848;10.510;2022-08-21T17:04:56;17.40;;;8.77;;
72850;SDS011;61171;43.848;10.510;2022-08-21T17:06:56;10.30;;;4.10;;
72850;SDS011;61171;43.848;10.510;2022-08-21T17:08:57;10.20;;;4.00;;
72850;SDS011;61171;43.848;10.510;2022-08-21T17:10:57;13.57;;;4.25;;
72850;SDS011;61171;43.848;10.510;2022-08-21T17:12:58;12.32;;;4.35;;
72850;SDS011;61171;43.848;10.510;2022-08-21T17:15:07;9.47;;;4.40;;
72850;SDS011;61171;43.848;10.510;2022-08-21T17:17:08;10.00;;;4.15;;
72850;SDS011;61171;43.848;10.510;2022-08-21T17:19:08;12.52;;;4.25;;
72850;SDS011;61171;43.848;10.510;2022-08-21T17:21:09;10.77;;;3.90;;
72850;SDS011;61171;43.848;10.510;2022-08-21T17:23:09;12.93;;;4.60;;
72850;SDS011;61171;43.848;10.510;2022-08-21T17:25:10;12.40;;;4.43;;
72850;SDS011;61171;43.848;10.510;2022-08-21T17:27:10;13.63;;;4.00;;
72850;SDS011;61171;43.848;10.510;2022-08-21T17:29:11;13.77;;;4.20;;
72850;SDS011;61171;43.848;10.510;2022-08-21T17:31:14;12.90;;;4.07;;
72850;SDS011;61171;43.848;10.510;2022-08-21T17:33:14;13.40;;;4.57;;
72850;SDS011;61171;43.848;10.510;2022-08-21T17:35:16;11.82;;;4.22;;
72850;SDS011;61171;43.848;10.510;2022-08-21T17:37:17;9.87;;;4.30;;
72850;SDS011;61171;43.848;10.510;2022-08-21T17:39:17;11.65;;;4.15;;
72850;SDS011;61171;43.848;10.510;2022-08-21T17:41:18;11.83;;;4.40;;
72850;SDS011;61171;43.848;10.510;2022-08-21T17:43:21;9.88;;;4.10;;
72850;SDS011;61171;43.848;10.510;2022-08-21T17:45:22;11.85;;;4.07;;
72850;SDS011;61171;43.848;10.510;2022-08-21T17:47:22;8.80;;;3.97;;
72850;SDS011;61171;43.848;10.510;2022-08-21T17:49:23;11.07;;;4.33;;
72850;SDS011;61171;43.848;10.510;2022-08-21T17:51:24;11.63;;;4.45;;
72850;SDS011;61171;43.848;10.510;2022-08-21T17:53:24;14.33;;;4.10;;
72850;SDS011;61171;43.848;10.510;2022-08-21T17:55:24;12.10;;;4.63;;
72850;SDS011;61171;43.848;10.510;2022-08-21T17:57:27;14.63;;;4.63;;
72850;SDS011;61171;43.848;10.510;2022-08-21T17:59:29;13.10;;;4.60;;
72850;SDS011;61171;43.848;10.510;2022-08-21T18:01:31;12.83;;;5.00;;
72850;SDS011;61171;43.848;10.510;2022-08-21T18:03:32;17.92;;;4.30;;
72850;SDS011;61171;43.848;10.510;2022-08-21T18:05:34;11.95;;;4.45;;
72850;SDS011;61171;43.848;10.510;2022-08-21T18:07:34;9.70;;;3.90;;
72850;SDS011;61171;43.848;10.510;2022-08-21T18:09:35;15.50;;;5.33;;
72850;SDS011;61171;43.848;10.510;2022-08-21T18:11:35;14.37;;;4.77;;
72850;SDS011;61171;43.848;10.510;2022-08-21T18:13:36;12.70;;;4.15;;
72850;SDS011;61171;43.848;10.510;2022-08-21T18:15:37;12.55;;;4.32;;
72850;SDS011;61171;43.848;10.510;2022-08-21T18:17:38;10.57;;;4.20;;
72850;SDS011;61171;43.848;10.510;2022-08-21T18:19:39;13.80;;;4.28;;
72850;SDS011;61171;43.848;10.510;2022-08-21T18:21:39;12.63;;;4.10;;
72850;SDS011;61171;43.848;10.510;2022-08-21T18:23:40;14.83;;;4.90;;
72850;SDS011;61171;43.848;10.510;2022-08-21T18:25:41;13.27;;;4.20;;
72850;SDS011;61171;43.848;10.510;2022-08-21T18:27:43;10.80;;;3.97;;
72850;SDS011;61171;43.848;10.510;2022-08-21T18:29:44;14.82;;;4.35;;
72850;SDS011;61171;43.848;10.510;2022-08-21T18:31:45;13.87;;;4.30;;
72850;SDS011;61171;43.848;10.510;2022-08-21T18:33:46;12.02;;;4.55;;
72850;SDS011;61171;43.848;10.510;2022-08-21T18:35:46;15.53;;;4.60;;
72850;SDS011;61171;43.848;10.510;2022-08-21T18:37:46;11.23;;;4.63;;
72850;SDS011;61171;43.848;10.510;2022-08-21T18:39:47;11.07;;;4.10;;
72850;SDS011;61171;43.848;10.510;2022-08-21T18:41:47;13.50;;;4.43;;
72850;SDS011;61171;43.848;10.510;2022-08-21T18:43:48;13.77;;;4.55;;
72850;SDS011;61171;43.848;10.510;2022-08-21T18:45:48;11.73;;;4.43;;
72850;SDS011;61171;43.848;10.510;2022-08-21T18:47:52;13.53;;;4.70;;
72850;SDS011;61171;43.848;10.510;2022-08-21T18:49:54;13.88;;;5.07;;
72850;SDS011;61171;43.848;10.510;2022-08-21T18:51:54;10.77;;;4.47;;
72850;SDS011;61171;43.848;10.510;2022-08-21T18:53:55;13.40;;;4.88;;
72850;SDS011;61171;43.848;10.510;2022-08-21T18:55:55;13.70;;;4.70;;
72850;SDS011;61171;43.848;10.510;2022-08-21T18:57:55;14.60;;;5.03;;
72850;SDS011;61171;43.848;10.510;2022-08-21T18:59:56;13.03;;;4.90;;
72850;SDS011;61171;43.848;10.510;2022-08-21T19:01:56;12.85;;;4.25;;
72850;SDS011;61171;43.848;10.510;2022-08-21T19:03:57;10.10;;;4.20;;
72850;SDS011;61171;43.848;10.510;2022-08-21T19:05:58;16.73;;;5.00;;
72850;SDS011;61171;43.848;10.510;2022-08-21T19:07:58;16.63;;;5.33;;
72850;SDS011;61171;43.848;10.510;2022-08-21T19:09:59;12.27;;;4.80;;
72850;SDS011;61171;43.848;10.510;2022-08-21T19:11:59;12.73;;;4.83;;
72850;SDS011;61171;43.848;10.510;2022-08-21T19:14:02;18.63;;;4.85;;
72850;SDS011;61171;43.848;10.510;2022-08-21T19:16:02;11.05;;;4.78;;
72850;SDS011;61171;43.848;10.510;2022-08-21T19:18:04;14.77;;;5.53;;
72850;SDS011;61171;43.848;10.510;2022-08-21T19:20:08;16.03;;;5.23;;
72850;SDS011;61171;43.848;10.510;2022-08-21T19:22:09;11.13;;;5.05;;
72850;SDS011;61171;43.848;10.510;2022-08-21T19:24:10;14.27;;;5.37;;
72850;SDS011;61171;43.848;10.510;2022-08-21T19:26:10;16.90;;;5.57;;
72850;SDS011;61171;43.848;10.510;2022-08-21T19:28:12;12.85;;;4.90;;
72850;SDS011;61171;43.848;10.510;2022-08-21T19:30:14;13.52;;;5.38;;
72850;SDS011;61171;43.848;10.510;2022-08-21T19:32:14;15.47;;;5.30;;
72850;SDS011;61171;43.848;10.510;2022-08-21T19:36:15;12.83;;;5.37;;
72850;SDS011;61171;43.848;10.510;2022-08-21T19:38:15;12.40;;;4.90;;
72850;SDS011;61171;43.848;10.510;2022-08-21T19:40:16;14.60;;;4.97;;
72850;SDS011;61171;43.848;10.510;2022-08-21T19:42:16;14.07;;;5.20;;
72850;SDS011;61171;43.848;10.510;2022-08-21T19:44:21;14.75;;;4.40;;
72850;SDS011;61171;43.848;10.510;2022-08-21T19:46:27;13.30;;;4.82;;
72850;SDS011;61171;43.848;10.510;2022-08-21T19:48:27;15.52;;;4.90;;
72850;SDS011;61171;43.848;10.510;2022-08-21T19:50:28;11.30;;;4.40;;
72850;SDS011;61171;43.848;10.510;2022-08-21T19:52:28;15.83;;;5.63;;
72850;SDS011;61171;43.848;10.510;2022-08-21T19:54:31;15.23;;;4.90;;
72850;SDS011;61171;43.848;10.510;2022-08-21T19:56:32;12.63;;;4.70;;
72850;SDS011;61171;43.848;10.510;2022-08-21T19:58:40;9.90;;;4.50;;
72850;SDS011;61171;43.848;10.510;2022-08-21T20:00:40;13.60;;;4.63;;
72850;SDS011;61171;43.848;10.510;2022-08-21T20:02:41;13.80;;;4.67;;
72850;SDS011;61171;43.848;10.510;2022-08-21T20:04:43;12.07;;;4.65;;
72850;SDS011;61171;43.848;10.510;2022-08-21T20:06:43;12.13;;;4.47;;
72850;SDS011;61171;43.848;10.510;2022-08-21T20:08:44;17.57;;;4.80;;
72850;SDS011;61171;43.848;10.510;2022-08-21T20:10:44;16.13;;;4.82;;
72850;SDS011;61171;43.848;10.510;2022-08-21T20:12:45;14.43;;;4.83;;
72850;SDS011;61171;43.848;10.510;2022-08-21T20:14:47;14.68;;;4.93;;
72850;SDS011;61171;43.848;10.510;2022-08-21T20:16:47;17.90;;;5.60;;
72850;SDS011;61171;43.848;10.510;2022-08-21T20:18:48;12.63;;;5.18;;
72850;SDS011;61171;43.848;10.510;2022-08-21T20:20:49;14.23;;;5.10;;
72850;SDS011;61171;43.848;10.510;2022-08-21T20:22:49;12.50;;;5.40;;
72850;SDS011;61171;43.848;10.510;2022-08-21T20:24:49;15.87;;;4.83;;
72850;SDS011;61171;43.848;10.510;2022-08-21T20:26:50;14.60;;;5.10;;
72850;SDS011;61171;43.848;10.510;2022-08-21T20:28:50;15.10;;;4.87;;
72850;SDS011;61171;43.848;10.510;2022-08-21T20:30:50;14.32;;;5.28;;
72850;SDS011;61171;43.848;10.510;2022-08-21T20:32:50;14.93;;;5.50;;
72850;SDS011;61171;43.848;10.510;2022-08-21T20:34:51;16.57;;;5.57;;
72850;SDS011;61171;43.848;10.510;2022-08-21T20:36:51;15.00;;;5.90;;
72850;SDS011;61171;43.848;10.510;2022-08-21T20:38:51;16.80;;;5.90;;
72850;SDS011;61171;43.848;10.510;2022-08-21T20:40:52;13.18;;;5.10;;
72850;SDS011;61171;43.848;10.510;2022-08-21T20:42:54;16.98;;;5.80;;
72850;SDS011;61171;43.848;10.510;2022-08-21T20:44:54;14.98;;;6.07;;
72850;SDS011;61171;43.848;10.510;2022-08-21T20:46:55;13.90;;;5.90;;
72850;SDS011;61171;43.848;10.510;2022-08-21T20:48:57;13.17;;;5.60;;
72850;SDS011;61171;43.848;10.510;2022-08-21T20:51:00;13.73;;;5.45;;
72850;SDS011;61171;43.848;10.510;2022-08-21T20:53:11;14.57;;;5.78;;
72850;SDS011;61171;43.848;10.510;2022-08-21T20:55:13;12.93;;;5.78;;
72850;SDS011;61171;43.848;10.510;2022-08-21T21:01:22;13.47;;;5.63;;
72850;SDS011;61171;43.848;10.510;2022-08-21T21:03:31;16.48;;;5.72;;
72850;SDS011;61171;43.848;10.510;2022-08-21T21:05:49;13.32;;;5.72;;
72850;SDS011;61171;43.848;10.510;2022-08-21T21:08:35;12.00;;;5.45;;
72850;SDS011;61171;43.848;10.510;2022-08-21T21:10:17;13.20;;;5.22;;
72850;SDS011;61171;43.848;10.510;2022-08-21T21:12:20;13.67;;;5.37;;
72850;SDS011;61171;43.848;10.510;2022-08-21T21:14:38;14.70;;;5.32;;
72850;SDS011;61171;43.848;10.510;2022-08-21T21:16:42;11.32;;;5.13;;
72850;SDS011;61171;43.848;10.510;2022-08-21T21:18:44;14.95;;;5.75;;
72850;SDS011;61171;43.848;10.510;2022-08-21T21:20:49;15.65;;;6.20;;
72850;SDS011;61171;43.848;10.510;2022-08-21T21:22:52;14.83;;;5.40;;
72850;SDS011;61171;43.848;10.510;2022-08-21T21:25:05;17.98;;;5.68;;
72850;SDS011;61171;43.848;10.510;2022-08-21T21:27:12;13.80;;;6.10;;
72850;SDS011;61171;43.848;10.510;2022-08-21T21:31:21;13.93;;;5.30;;
72850;SDS011;61171;43.848;10.510;2022-08-21T21:33:21;11.63;;;5.30;;
72850;SDS011;61171;43.848;10.510;2022-08-21T21:35:28;14.83;;;5.30;;
72850;SDS011;61171;43.848;10.510;2022-08-21T21:37:37;13.77;;;5.57;;
72850;SDS011;61171;43.848;10.510;2022-08-21T21:39:44;14.18;;;5.57;;
72850;SDS011;61171;43.848;10.510;2022-08-21T21:41:48;18.73;;;5.30;;
72850;SDS011;61171;43.848;10.510;2022-08-21T21:43:54;9.38;;;4.53;;
72850;SDS011;61171;43.848;10.510;2022-08-21T21:48:17;11.10;;;4.60;;
72850;SDS011;61171;43.848;10.510;2022-08-21T21:50:36;12.10;;;4.45;;
72850;SDS011;61171;43.848;10.510;2022-08-21T21:52:50;12.80;;;4.70;;
72850;SDS011;61171;43.848;10.510;2022-08-21T22:01:26;12.43;;;4.80;;
72850;SDS011;61171;43.848;10.510;2022-08-21T22:03:41;9.32;;;4.60;;
72850;SDS011;61171;43.848;10.510;2022-08-21T22:07:56;9.65;;;4.47;;
72850;SDS011;61171;43.848;10.510;2022-08-21T22:14:20;9.10;;;4.57;;
72850;SDS011;61171;43.848;10.510;2022-08-21T22:16:21;9.52;;;4.45;;
72850;SDS011;61171;43.848;10.510;2022-08-21T22:18:23;10.33;;;4.57;;
72850;SDS011;61171;43.848;10.510;2022-08-21T22:20:30;10.87;;;4.40;;
72850;SDS011;61171;43.848;10.510;2022-08-21T22:22:32;10.77;;;4.80;;
72850;SDS011;61171;43.848;10.510;2022-08-21T22:24:34;11.60;;;4.68;;
72850;SDS011;61171;43.848;10.510;2022-08-21T22:26:37;10.07;;;4.70;;
72850;SDS011;61171;43.848;10.510;2022-08-21T22:28:40;10.90;;;5.00;;
72850;SDS011;61171;43.848;10.510;2022-08-21T22:30:45;7.83;;;4.10;;
72850;SDS011;61171;43.848;10.510;2022-08-21T22:32:47;10.73;;;4.72;;
72850;SDS011;61171;43.848;10.510;2022-08-21T22:35:00;9.35;;;4.60;;
72850;SDS011;61171;43.848;10.510;2022-08-21T22:37:03;9.98;;;4.85;;
72850;SDS011;61171;43.848;10.510;2022-08-21T22:39:05;7.60;;;4.10;;
72850;SDS011;61171;43.848;10.510;2022-08-21T22:41:09;9.43;;;4.67;;
72850;SDS011;61171;43.848;10.510;2022-08-21T22:43:20;11.02;;;4.72;;
72850;SDS011;61171;43.848;10.510;2022-08-21T22:45:20;10.98;;;4.63;;
72850;SDS011;61171;43.848;10.510;2022-08-21T22:47:40;13.80;;;5.20;;
72850;SDS011;61171;43.848;10.510;2022-08-21T22:49:43;14.30;;;5.07;;
72850;SDS011;61171;43.848;10.510;2022-08-21T22:51:46;10.20;;;4.22;;
72850;SDS011;61171;43.848;10.510;2022-08-21T22:53:49;11.60;;;5.40;;
72850;SDS011;61171;43.848;10.510;2022-08-21T22:55:54;10.75;;;4.85;;
72850;SDS011;61171;43.848;10.510;2022-08-21T22:58:00;11.00;;;4.90;;
72850;SDS011;61171;43.848;10.510;2022-08-21T23:00:07;10.43;;;4.70;;
72850;SDS011;61171;43.848;10.510;2022-08-21T23:04:21;12.40;;;4.80;;
72850;SDS011;61171;43.848;10.510;2022-08-21T23:08:54;9.55;;;4.60;;
72850;SDS011;61171;43.848;10.510;2022-08-21T23:10:59;9.57;;;4.27;;
72850;SDS011;61171;43.848;10.510;2022-08-21T23:13:18;9.73;;;4.40;;
72850;SDS011;61171;43.848;10.510;2022-08-21T23:15:19;9.18;;;4.88;;
72850;SDS011;61171;43.848;10.510;2022-08-21T23:17:22;8.73;;;4.30;;
72850;SDS011;61171;43.848;10.510;2022-08-21T23:22:13;14.30;;;4.50;;
72850;SDS011;61171;43.848;10.510;2022-08-21T23:24:13;10.48;;;4.32;;
72850;SDS011;61171;43.848;10.510;2022-08-21T23:28:29;10.27;;;4.50;;
72850;SDS011;61171;43.848;10.510;2022-08-21T23:37:18;8.80;;;3.80;;
72850;SDS011;61171;43.848;10.510;2022-08-21T23:42:02;6.82;;;3.38;;
72850;SDS011;61171;43.848;10.510;2022-08-21T23:46:18;8.02;;;3.63;;
72850;SDS011;61171;43.848;10.510;2022-08-21T23:48:25;8.10;;;3.10;;
